Time;durP1;ratioP1;P1;durP2;ratioP2;P2;SDS_P1;SDS_P2;PMS_P1;PMS_P2;Temp;Humidity;BMP_temperature;BMP_pressure;BME280_temperature;BME280_humidity;BME280_pressure;Samples;Min_cycle;Max_cycle;Signal;HPM_P1;HPM_P2
2021/03/06 00:00:20;;;;;;;4.95;2.80;;;-0.80;73.50;;;;;;5062222;28;20223;-79
2021/03/06 00:02:51;;;;;;;3.92;3.58;;;-0.80;82.80;;;;;;5061710;28;20200;-79
2021/03/06 00:05:20;;;;;;;3.45;3.05;;;-0.80;78.00;;;;;;5060690;28;20181;-80
2021/03/06 00:07:49;;;;;;;7.63;3.40;;;-0.90;79.60;;;;;;5060432;28;20200;-79
2021/03/06 00:10:17;;;;;;;4.70;2.83;;;-0.90;84.90;;;;;;5060569;28;20207;-79
2021/03/06 00:12:46;;;;;;;6.40;3.97;;;-0.90;90.20;;;;;;5061199;28;20188;-78
2021/03/06 00:15:15;;;;;;;5.93;2.55;;;-0.90;92.70;;;;;;5080221;28;20176;-80
2021/03/06 00:17:43;;;;;;;3.58;3.28;;;-1.00;91.00;;;;;;5080512;28;20290;-79
2021/03/06 00:20:11;;;;;;;3.75;2.28;;;-1.00;95.30;;;;;;5080814;28;20164;-80
2021/03/06 00:22:39;;;;;;;5.22;2.45;;;-1.00;99.90;;;;;;5079747;28;20673;-79
2021/03/06 00:25:10;;;;;;;5.03;3.85;;;-1.10;99.90;;;;;;5078705;28;20796;-77
2021/03/06 00:27:38;;;;;;;4.05;3.65;;;-1.10;99.90;;;;;;5076913;28;20230;-77
2021/03/06 00:30:08;;;;;;;4.90;2.95;;;-1.00;99.90;;;;;;5076052;28;20191;-78
2021/03/06 00:32:36;;;;;;;4.07;2.70;;;-1.10;99.90;;;;;;5077622;28;20230;-78
2021/03/06 00:35:05;;;;;;;3.03;2.45;;;-1.10;1.00;;;;;;5078033;28;20188;-78
2021/03/06 00:37:32;;;;;;;2.22;2.03;;;-1.10;94.50;;;;;;5076833;28;20208;-77
2021/03/06 00:40:00;;;;;;;2.28;1.85;;;-1.20;99.90;;;;;;5076539;28;20222;-78
2021/03/06 00:42:28;;;;;;;2.90;2.67;;;-1.20;1.00;;;;;;5076881;28;20234;-78
2021/03/06 00:44:55;;;;;;;4.50;3.03;;;-1.20;1.00;;;;;;5079211;28;20184;-78
2021/03/06 00:47:23;;;;;;;3.10;2.75;;;-1.20;1.00;;;;;;5082817;28;20245;-75
2021/03/06 00:49:50;;;;;;;1.85;1.75;;;-1.30;1.00;;;;;;5080004;28;20188;-76
2021/03/06 00:52:18;;;;;;;5.32;3.65;;;-1.30;1.00;;;;;;5078268;28;20180;-77
2021/03/06 00:54:45;;;;;;;2.95;2.75;;;-1.30;1.00;;;;;;5075665;28;20188;-77
2021/03/06 00:57:13;;;;;;;6.68;3.20;;;-1.40;1.00;;;;;;5074845;28;20222;-77
2021/03/06 00:59:42;;;;;;;2.10;1.73;;;-1.30;1.00;;;;;;5074681;28;20196;-77
2021/03/06 01:02:10;;;;;;;3.38;3.17;;;-1.40;1.00;;;;;;5074288;28;20250;-77
2021/03/06 01:04:39;;;;;;;3.30;3.00;;;-1.40;1.00;;;;;;5075777;28;20271;-76
2021/03/06 01:07:07;;;;;;;3.42;2.47;;;-1.40;1.00;;;;;;5075921;28;20212;-77
2021/03/06 01:09:34;;;;;;;11.00;3.78;;;-1.40;3.00;;;;;;5076925;28;20179;-77
2021/03/06 01:12:01;;;;;;;3.25;3.00;;;-1.40;11.80;;;;;;5076533;28;20181;-78
2021/03/06 01:14:29;;;;;;;2.28;1.60;;;-1.40;15.40;;;;;;5075885;28;20188;-76
2021/03/06 01:16:57;;;;;;;4.50;2.65;;;-1.40;42.60;;;;;;5075857;28;20222;-76
2021/03/06 01:19:26;;;;;;;2.20;2.00;;;-1.40;37.80;;;;;;5075793;28;20262;-77
2021/03/06 01:21:53;;;;;;;3.35;1.90;;;-1.50;49.70;;;;;;5076094;28;20192;-76
2021/03/06 01:24:34;;;;;;;2.40;1.88;;;-1.50;99.90;;;;;;5076876;28;20695;-78
2021/03/06 01:27:02;;;;;;;4.63;2.33;;;-1.50;99.90;;;;;;5079352;28;20247;-78
2021/03/06 01:29:29;;;;;;;4.03;1.67;;;-1.50;99.90;;;;;;5080040;28;20180;-78
2021/03/06 01:31:57;;;;;;;4.25;2.25;;;-1.50;99.90;;;;;;5076732;28;20658;-78
2021/03/06 01:34:25;;;;;;;3.45;2.38;;;-1.40;99.90;;;;;;5078450;28;20638;-78
2021/03/06 01:36:53;;;;;;;7.40;2.75;;;-1.40;99.90;;;;;;5076582;28;20698;-78
2021/03/06 01:39:21;;;;;;;3.85;3.03;;;-1.40;99.90;;;;;;5077493;28;20187;-76
2021/03/06 01:41:48;;;;;;;3.30;2.58;;;-1.50;99.90;;;;;;5075407;28;20208;-77
2021/03/06 01:44:16;;;;;;;3.70;2.53;;;-1.40;99.90;;;;;;5079190;28;20305;-77
2021/03/06 01:46:48;;;;;;;5.70;2.75;;;-1.50;99.90;;;;;;5131972;22;20252;-77
2021/03/06 01:49:18;;;;;;;5.72;2.90;;;-1.50;99.90;;;;;;5085554;28;20207;-78
2021/03/06 01:51:47;;;;;;;3.10;2.20;;;-1.50;99.90;;;;;;5079144;28;20692;-79
2021/03/06 01:54:18;;;;;;;4.80;3.10;;;-1.50;99.70;;;;;;5076790;28;20678;-78
2021/03/06 01:56:46;;;;;;;7.13;4.32;;;-1.50;98.90;;;;;;5076089;28;20184;-77
2021/03/06 01:59:15;;;;;;;3.35;1.70;;;-1.40;99.90;;;;;;5076450;28;20255;-79
2021/03/06 02:01:43;;;;;;;3.22;1.30;;;-1.40;99.90;;;;;;5076351;28;20204;-77
2021/03/06 02:04:18;;;;;;;3.30;1.80;;;-1.50;99.90;;;;;;5075713;28;20250;-77
2021/03/06 02:06:46;;;;;;;2.90;2.70;;;-1.50;99.90;;;;;;5077610;28;20174;-78
2021/03/06 02:09:15;;;;;;;3.85;3.25;;;-1.60;99.90;;;;;;5076379;28;20238;-79
2021/03/06 02:11:49;;;;;;;2.33;2.13;;;-1.60;99.90;;;;;;5076854;28;20168;-78
2021/03/06 02:14:33;;;;;;;3.47;3.22;;;-1.60;99.90;;;;;;5077642;28;20643;-78
2021/03/06 02:17:06;;;;;;;4.25;1.55;;;-1.70;99.90;;;;;;5079550;28;20406;-77
2021/03/06 02:20:19;;;;;;;2.58;2.38;;;-1.60;99.90;;;;;;5075891;28;20208;-77
2021/03/06 02:23:10;;;;;;;2.97;2.67;;;-1.70;99.90;;;;;;5035610;28;20776;-78
2021/03/06 02:26:04;;;;;;;2.35;2.15;;;-1.70;99.90;;;;;;5077161;28;20218;-77
2021/03/06 02:28:41;;;;;;;2.45;2.22;;;-1.70;99.90;;;;;;5074592;28;20208;-78
2021/03/06 02:31:17;;;;;;;3.28;2.47;;;-1.70;99.90;;;;;;5078645;28;20222;-78
2021/03/06 02:33:53;;;;;;;3.08;1.67;;;-1.70;99.90;;;;;;5076621;28;20589;-78
2021/03/06 02:36:25;;;;;;;7.38;2.90;;;-1.70;99.90;;;;;;5076435;28;20183;-78
2021/03/06 02:38:57;;;;;;;4.03;3.63;;;-1.70;99.90;;;;;;5076575;28;20673;-77
2021/03/06 02:41:27;;;;;;;6.63;3.45;;;-1.70;99.90;;;;;;5075702;28;20188;-79
2021/03/06 02:43:57;;;;;;;7.18;2.60;;;-1.70;99.90;;;;;;5077592;28;20175;-78
2021/03/06 02:46:27;;;;;;;1.70;1.60;;;-1.80;99.90;;;;;;5077883;28;20641;-78
2021/03/06 02:48:58;;;;;;;2.20;2.00;;;-1.80;99.90;;;;;;5075853;28;20633;-78
2021/03/06 02:51:35;;;;;;;1.60;1.45;;;-1.80;99.90;;;;;;5076416;28;20188;-79
2021/03/06 02:54:04;;;;;;;2.70;1.95;;;-1.80;99.90;;;;;;5075333;28;20241;-78
2021/03/06 02:56:38;;;;;;;5.03;2.65;;;-1.80;99.90;;;;;;5079387;28;20202;-79
2021/03/06 02:59:18;;;;;;;1.63;1.52;;;-1.70;99.90;;;;;;5077148;28;20207;-79
2021/03/06 03:01:58;;;;;;;5.85;5.40;;;-1.80;99.90;;;;;;5076778;28;20191;-78
2021/03/06 03:46:39;;;;;;;3.22;1.52;;;-1.90;99.90;;;;;;4982281;28;20604;-78
2021/03/06 03:49:14;;;;;;;3.35;3.05;;;-2.00;99.90;;;;;;4980217;28;20219;-78
2021/03/06 03:51:43;;;;;;;1.70;1.27;;;-2.00;99.90;;;;;;5018745;28;20220;-79
2021/03/06 03:54:14;;;;;;;5.22;2.35;;;-2.00;99.90;;;;;;5025072;28;20570;-78
2021/03/06 03:56:43;;;;;;;2.17;1.55;;;-2.00;99.90;;;;;;5042412;28;20728;-78
2021/03/06 07:46:37;;;;;;;3.45;2.00;;;0.90;99.90;;;;;;4886632;22;20236;-75
2021/03/06 07:49:11;;;;;;;3.25;1.92;;;1.00;99.90;;;;;;5084378;28;20195;-74
2021/03/06 07:51:43;;;;;;;4.10;1.55;;;1.00;99.90;;;;;;5095614;28;20544;-74
2021/03/06 07:54:13;;;;;;;7.22;1.77;;;1.10;99.90;;;;;;5095706;28;20202;-75
2021/03/06 07:56:42;;;;;;;9.30;2.40;;;1.20;99.90;;;;;;5084550;28;20291;-74
2021/03/06 07:59:49;;;;;;;2.78;1.90;;;1.30;99.90;;;;;;5075605;28;20685;-75
2021/03/06 08:02:37;;;;;;;3.53;2.22;;;1.30;99.90;;;;;;5075047;28;20200;-75
2021/03/06 08:05:45;;;;;;;2.88;2.22;;;1.40;99.90;;;;;;5075196;28;20221;-75
2021/03/06 08:08:45;;;;;;;2.67;2.33;;;1.50;99.90;;;;;;5074655;28;20253;-74
2021/03/06 08:11:15;;;;;;;4.20;2.45;;;1.60;99.90;;;;;;5074121;28;20244;-75
2021/03/06 08:13:46;;;;;;;3.90;3.47;;;1.70;99.90;;;;;;5074835;28;20711;-75
2021/03/06 08:16:32;;;;;;;3.10;2.88;;;1.70;99.90;;;;;;5075218;28;20575;-75
2021/03/06 08:19:02;;;;;;;3.83;1.95;;;1.70;99.90;;;;;;5074635;28;20190;-75
2021/03/06 08:21:31;;;;;;;2.25;2.05;;;1.70;99.90;;;;;;5074978;28;20253;-75
2021/03/06 08:24:29;;;;;;;6.25;2.20;;;1.70;99.90;;;;;;5074532;28;20221;-74
2021/03/06 08:27:22;;;;;;;3.05;2.63;;;1.70;99.90;;;;;;5074644;28;20210;-74
2021/03/06 08:29:58;;;;;;;1.98;1.75;;;1.80;99.90;;;;;;5074559;28;20593;-75
2021/03/06 08:32:33;;;;;;;8.52;2.38;;;2.00;99.90;;;;;;5074387;28;20168;-75
2021/03/06 08:35:18;;;;;;;1.42;1.27;;;2.10;99.90;;;;;;5075347;28;20278;-75
2021/03/06 08:37:46;;;;;;;3.28;2.00;;;2.20;99.90;;;;;;5073228;28;20223;-75
2021/03/06 08:40:19;;;;;;;12.95;2.20;;;2.10;99.90;;;;;;5074247;28;20234;-75
2021/03/06 08:42:49;;;;;;;1.85;1.75;;;2.10;99.90;;;;;;5076551;28;20200;-74
2021/03/06 08:45:19;;;;;;;3.42;2.47;;;2.10;99.90;;;;;;5073585;28;20200;-75
2021/03/06 08:47:51;;;;;;;6.68;2.13;;;2.30;99.90;;;;;;5085335;28;20262;-76
2021/03/06 08:50:21;;;;;;;3.20;2.22;;;2.50;99.90;;;;;;5098420;28;20263;-75
2021/03/06 08:52:57;;;;;;;2.58;2.15;;;2.50;99.90;;;;;;5098624;28;20215;-76
2021/03/06 08:55:27;;;;;;;6.40;2.45;;;2.60;99.90;;;;;;5095459;28;20186;-75
2021/03/06 08:57:54;;;;;;;3.78;2.35;;;2.70;99.90;;;;;;5093887;28;20667;-75
2021/03/06 09:00:28;;;;;;;3.33;2.13;;;2.70;99.90;;;;;;5094055;28;20236;-74
2021/03/06 09:02:56;;;;;;;3.63;1.95;;;2.60;99.90;;;;;;5092121;28;20215;-72
2021/03/06 09:05:27;;;;;;;3.22;2.20;;;2.80;99.90;;;;;;5093821;28;20191;-75
2021/03/06 09:07:56;;;;;;;3.13;2.45;;;2.90;99.90;;;;;;5093528;28;20263;-75
2021/03/06 09:10:33;;;;;;;2.35;2.15;;;3.10;99.90;;;;;;5095014;28;20199;-74
2021/03/06 09:13:04;;;;;;;3.40;2.47;;;3.00;99.90;;;;;;5097002;28;20547;-75
2021/03/06 09:15:40;;;;;;;1.88;1.55;;;3.10;99.90;;;;;;5094132;28;20532;-75
2021/03/06 09:18:10;;;;;;;4.10;3.08;;;3.30;99.90;;;;;;5092264;28;20232;-74
2021/03/06 09:20:52;;;;;;;13.15;2.88;;;3.50;99.90;;;;;;5093088;28;20206;-75
2021/03/06 09:23:32;;;;;;;3.60;2.10;;;3.60;99.90;;;;;;5093119;28;20195;-74
2021/03/06 09:26:03;;;;;;;4.13;2.85;;;3.70;99.90;;;;;;5093632;28;20570;-75
2021/03/06 09:28:32;;;;;;;3.17;2.78;;;4.00;99.90;;;;;;5092161;28;20215;-75
2021/03/06 09:31:01;;;;;;;9.68;2.20;;;4.40;99.90;;;;;;5091696;28;20237;-74
2021/03/06 09:33:30;;;;;;;4.00;2.30;;;4.70;99.90;;;;;;5093405;28;20270;-74
2021/03/06 09:36:04;;;;;;;5.80;2.33;;;4.80;99.90;;;;;;5093136;28;20933;-74
2021/03/06 09:38:44;;;;;;;2.15;1.60;;;4.80;99.90;;;;;;5092365;28;20592;-75
2021/03/06 09:41:13;;;;;;;3.15;1.83;;;4.50;99.90;;;;;;5092482;28;20190;-75
2021/03/06 09:43:43;;;;;;;2.03;1.75;;;4.70;99.90;;;;;;5092013;28;20243;-76
2021/03/06 09:46:16;;;;;;;2.05;1.45;;;4.90;99.90;;;;;;5092647;28;20207;-75
2021/03/06 09:48:52;;;;;;;6.32;2.15;;;4.90;99.90;;;;;;5091092;28;20203;-75
2021/03/06 09:51:21;;;;;;;2.42;1.80;;;4.70;99.90;;;;;;5093079;28;20209;-77
2021/03/06 09:53:57;;;;;;;2.50;1.65;;;4.80;99.90;;;;;;5091887;28;20191;-74
2021/03/06 09:56:24;;;;;;;6.03;1.10;;;4.80;99.90;;;;;;5092172;28;20235;-76
2021/03/06 09:59:01;;;;;;;1.77;1.30;;;4.60;99.90;;;;;;5091594;28;20270;-76
2021/03/06 10:01:29;;;;;;;2.35;1.45;;;4.70;99.90;;;;;;5092096;28;20515;-76
2021/03/06 10:03:57;;;;;;;2.35;2.00;;;4.80;99.90;;;;;;5091251;28;20789;-76
2021/03/06 10:06:30;;;;;;;6.90;2.38;;;5.00;99.90;;;;;;5092130;28;20214;-76
2021/03/06 10:09:00;;;;;;;3.00;2.50;;;5.10;99.90;;;;;;5091690;28;20286;-74
2021/03/06 10:11:30;;;;;;;2.40;1.92;;;5.00;99.90;;;;;;5091041;28;20190;-76
2021/03/06 10:13:57;;;;;;;3.45;1.90;;;4.70;99.90;;;;;;5092556;28;20176;-76
2021/03/06 10:16:25;;;;;;;2.80;1.73;;;4.70;99.90;;;;;;5092021;28;20211;-77
2021/03/06 10:21:30;;;;;;;1.42;1.33;;;4.50;99.90;;;;;;5064114;28;20216;-79
2021/03/06 10:24:51;;;;;;;1.55;1.42;;;4.60;99.90;;;;;;5086337;28;20207;-79
2021/03/06 10:27:41;;;;;;;1.45;1.35;;;4.80;99.90;;;;;;5087691;28;20234;-79
2021/03/06 10:33:39;;;;;;;4.70;2.90;;;5.20;99.90;;;;;;5071356;28;20191;-77
2021/03/06 10:36:15;;;;;;;2.38;2.05;;;5.30;99.90;;;;;;5076300;28;20259;-77
2021/03/06 10:38:48;;;;;;;3.17;2.50;;;5.10;99.90;;;;;;5093804;28;20172;-79
2021/03/06 10:41:18;;;;;;;3.13;2.17;;;5.20;99.90;;;;;;5085392;28;20224;-80
2021/03/06 10:43:52;;;;;;;3.95;2.55;;;5.10;99.90;;;;;;5082892;28;20200;-78
2021/03/06 10:46:28;;;;;;;2.97;2.03;;;4.90;99.90;;;;;;5063340;28;20245;-79
2021/03/06 10:48:59;;;;;;;3.25;2.28;;;4.90;99.90;;;;;;5063574;28;20234;-79
2021/03/06 10:51:41;;;;;;;2.50;1.95;;;4.90;99.90;;;;;;5083679;28;20173;-80
2021/03/06 10:54:09;;;;;;;17.00;2.63;;;4.70;99.90;;;;;;5085017;28;20179;-79
2021/03/06 10:56:39;;;;;;;4.10;3.72;;;4.70;99.90;;;;;;5068706;28;20689;-78
2021/03/06 10:59:06;;;;;;;3.10;1.85;;;4.60;99.90;;;;;;5065453;28;20250;-77
2021/03/06 11:01:45;;;;;;;4.18;3.03;;;4.50;99.90;;;;;;5085836;28;20267;-80
2021/03/06 11:04:27;;;;;;;6.15;2.10;;;4.40;99.90;;;;;;5061722;28;20184;-76
2021/03/06 11:06:56;;;;;;;4.80;2.28;;;4.50;99.90;;;;;;5076345;28;20212;-77
2021/03/06 11:09:28;;;;;;;4.97;4.45;;;4.50;99.90;;;;;;5082524;28;20225;-78
2021/03/06 11:11:57;;;;;;;3.60;2.20;;;4.30;99.90;;;;;;5081030;28;20565;-79
2021/03/06 11:14:26;;;;;;;2.30;2.10;;;4.30;99.90;;;;;;5084570;28;20179;-81
2021/03/06 11:16:54;;;;;;;3.03;1.90;;;4.20;99.90;;;;;;5068111;28;20219;-78
2021/03/06 11:19:22;;;;;;;2.97;2.67;;;4.20;99.90;;;;;;5079991;28;20266;-79
2021/03/06 11:21:49;;;;;;;2.30;2.13;;;4.20;99.90;;;;;;5088504;28;20624;-76
2021/03/06 11:24:17;;;;;;;2.33;2.13;;;3.90;99.90;;;;;;5075227;28;20202;-77
2021/03/06 11:26:44;;;;;;;3.40;2.90;;;3.80;99.90;;;;;;5079589;28;20208;-79
2021/03/06 11:29:12;;;;;;;10.63;4.10;;;3.70;99.90;;;;;;5088233;28;20192;-78
2021/03/06 11:31:55;;;;;;;10.68;3.40;;;3.50;99.90;;;;;;5088652;28;20195;-78
2021/03/06 11:34:23;;;;;;;7.80;3.40;;;3.70;99.90;;;;;;5070331;28;20192;-79
2021/03/06 11:36:52;;;;;;;9.93;4.45;;;3.90;99.90;;;;;;5068732;28;20211;-78
2021/03/06 11:39:20;;;;;;;3.00;2.80;;;4.10;99.90;;;;;;5084608;28;20192;-77
2021/03/06 11:41:50;;;;;;;5.35;2.55;;;4.20;99.90;;;;;;5066520;28;20248;-77
2021/03/06 11:44:18;;;;;;;8.32;3.15;;;4.40;99.90;;;;;;5086762;28;20173;-79
2021/03/06 11:46:46;;;;;;;10.68;3.90;;;4.40;99.90;;;;;;5088473;28;20203;-79
2021/03/06 11:49:13;;;;;;;4.30;3.33;;;4.60;99.90;;;;;;5087901;28;20199;-79
2021/03/06 11:51:40;;;;;;;6.38;3.88;;;4.70;99.90;;;;;;5059201;28;20200;-74
2021/03/06 11:54:08;;;;;;;4.15;3.20;;;4.30;99.90;;;;;;5077578;28;20188;-75
2021/03/06 11:56:35;;;;;;;2.90;2.60;;;3.90;99.90;;;;;;5076545;28;20291;-74
2021/03/06 11:59:02;;;;;;;3.30;2.90;;;4.00;99.90;;;;;;5077005;28;20191;-75
2021/03/06 12:01:30;;;;;;;4.45;4.05;;;4.00;99.90;;;;;;5076244;28;20523;-75
2021/03/06 12:03:58;;;;;;;4.28;2.65;;;3.90;99.90;;;;;;5076305;28;20250;-73
2021/03/06 12:06:25;;;;;;;4.72;3.22;;;3.90;99.90;;;;;;5076651;28;20222;-74
2021/03/06 12:08:53;;;;;;;5.40;3.33;;;4.00;99.90;;;;;;5076069;28;20188;-75
2021/03/06 12:11:20;;;;;;;3.33;2.88;;;4.00;99.90;;;;;;5058965;28;20215;-76
2021/03/06 12:13:47;;;;;;;4.78;3.65;;;4.10;99.90;;;;;;5076367;28;20181;-73
2021/03/06 12:16:14;;;;;;;6.75;3.88;;;4.20;99.90;;;;;;5076792;28;20180;-75
2021/03/06 12:18:42;;;;;;;3.60;3.30;;;4.00;99.90;;;;;;5058096;28;20188;-75
2021/03/06 12:21:10;;;;;;;4.15;3.42;;;3.90;99.90;;;;;;5075313;28;20207;-75
2021/03/06 12:23:37;;;;;;;8.43;4.03;;;3.70;99.90;;;;;;5084262;28;20220;-74
2021/03/06 12:26:04;;;;;;;3.17;2.67;;;3.60;99.90;;;;;;5057679;28;20180;-75
2021/03/06 12:28:31;;;;;;;17.27;3.75;;;3.70;99.90;;;;;;5060909;28;20205;-75
2021/03/06 12:30:59;;;;;;;4.32;3.53;;;3.40;99.90;;;;;;5043552;28;20188;-77
2021/03/06 12:33:26;;;;;;;4.80;2.97;;;3.40;99.90;;;;;;5061026;28;20185;-75
2021/03/06 12:35:54;;;;;;;4.47;3.25;;;3.40;99.90;;;;;;5055866;28;20637;-76
2021/03/06 12:38:21;;;;;;;7.70;3.47;;;3.50;99.90;;;;;;5055187;28;20216;-75
2021/03/06 12:40:48;;;;;;;4.93;4.38;;;3.60;99.90;;;;;;5037943;28;20205;-77
2021/03/06 12:43:16;;;;;;;5.03;4.30;;;3.70;99.90;;;;;;5055619;28;20197;-76
2021/03/06 12:45:43;;;;;;;8.75;3.80;;;3.70;99.90;;;;;;5037882;28;20193;-75
2021/03/06 12:48:11;;;;;;;5.20;2.85;;;3.60;99.90;;;;;;5038183;28;20503;-76
2021/03/06 12:50:39;;;;;;;6.07;2.75;;;3.70;99.90;;;;;;5056419;28;20181;-77
2021/03/06 12:53:07;;;;;;;4.32;2.88;;;3.70;99.90;;;;;;5056150;28;20530;-75
2021/03/06 12:55:34;;;;;;;4.28;3.55;;;3.80;99.90;;;;;;5055110;28;20609;-75
2021/03/06 12:58:02;;;;;;;3.78;2.35;;;3.90;99.90;;;;;;5036595;28;20220;-75
2021/03/06 13:00:31;;;;;;;4.70;2.85;;;4.00;99.90;;;;;;5056029;28;20235;-76
2021/03/06 13:02:58;;;;;;;4.22;3.15;;;4.00;99.90;;;;;;5055889;28;20238;-75
2021/03/06 13:05:30;;;;;;;3.50;3.17;;;4.00;99.90;;;;;;5055861;28;20193;-76
2021/03/06 13:07:57;;;;;;;6.43;3.13;;;4.00;99.90;;;;;;5058021;28;20235;-75
2021/03/06 13:10:26;;;;;;;2.92;2.30;;;4.20;99.90;;;;;;5057775;28;20185;-76
2021/03/06 13:12:53;;;;;;;7.30;3.65;;;4.40;99.90;;;;;;5060730;28;20187;-77
2021/03/06 13:15:21;;;;;;;4.10;3.70;;;4.70;99.90;;;;;;5060525;28;20185;-75
2021/03/06 13:17:48;;;;;;;3.75;2.78;;;4.90;99.90;;;;;;5059956;28;20266;-76
2021/03/06 13:20:16;;;;;;;5.22;3.25;;;4.90;99.90;;;;;;5059310;28;20287;-74
2021/03/06 13:22:43;;;;;;;5.10;3.03;;;4.80;99.90;;;;;;5055007;28;20262;-74
2021/03/06 13:25:10;;;;;;;3.80;2.67;;;4.70;99.90;;;;;;5054926;28;20180;-76
2021/03/06 13:27:39;;;;;;;3.78;2.22;;;4.60;99.90;;;;;;5054812;28;20262;-76
2021/03/06 13:30:09;;;;;;;3.65;3.35;;;4.50;99.90;;;;;;5054478;28;20192;-73
2021/03/06 13:32:37;;;;;;;3.45;3.15;;;4.40;99.90;;;;;;5054805;28;20181;-75
2021/03/06 13:35:06;;;;;;;4.38;3.50;;;4.30;99.90;;;;;;5036866;28;20193;-73
2021/03/06 13:37:33;;;;;;;4.50;4.10;;;4.30;99.90;;;;;;5036859;28;20217;-74
2021/03/06 13:40:01;;;;;;;3.60;3.05;;;4.30;99.90;;;;;;5054366;28;20188;-74
2021/03/06 13:42:29;;;;;;;3.40;2.70;;;4.20;99.90;;;;;;5037142;28;20678;-75
2021/03/06 13:44:58;;;;;;;2.90;2.67;;;4.10;99.90;;;;;;5054770;28;20192;-75
2021/03/06 13:47:26;;;;;;;5.13;3.75;;;4.00;99.90;;;;;;5087209;22;20219;-75
2021/03/06 13:49:54;;;;;;;2.55;2.35;;;4.10;99.90;;;;;;5096481;28;20183;-75
2021/03/06 13:52:21;;;;;;;3.05;2.53;;;4.20;99.90;;;;;;5094918;28;20278;-75
2021/03/06 13:54:48;;;;;;;2.60;2.22;;;4.20;99.90;;;;;;5095766;28;20171;-75
2021/03/06 13:57:16;;;;;;;2.72;2.17;;;4.10;99.90;;;;;;5087942;28;20204;-75
2021/03/06 13:59:43;;;;;;;2.55;2.35;;;4.10;99.90;;;;;;5074366;28;20223;-75
2021/03/06 14:02:11;;;;;;;6.32;2.67;;;4.20;99.90;;;;;;5075456;28;20573;-75
2021/03/06 14:04:38;;;;;;;5.32;2.88;;;4.20;99.90;;;;;;5074058;28;20681;-75
2021/03/06 14:07:06;;;;;;;4.05;1.95;;;4.30;99.90;;;;;;5074340;28;20214;-75
2021/03/06 14:09:34;;;;;;;4.22;1.75;;;4.40;99.90;;;;;;5074893;28;20897;-76
2021/03/06 14:12:02;;;;;;;2.75;1.95;;;4.50;99.90;;;;;;5075135;28;20276;-75
2021/03/06 14:14:30;;;;;;;2.15;1.95;;;4.50;99.90;;;;;;5073549;28;20184;-76
2021/03/06 14:16:58;;;;;;;2.40;2.20;;;4.50;99.90;;;;;;5074070;28;20215;-75
2021/03/06 14:19:26;;;;;;;2.83;2.53;;;4.60;99.90;;;;;;5075925;28;20184;-75
2021/03/06 14:21:54;;;;;;;2.47;1.75;;;4.60;99.90;;;;;;5075771;28;20180;-75
2021/03/06 14:24:21;;;;;;;2.08;1.92;;;4.60;99.90;;;;;;5074435;28;20228;-75
2021/03/06 14:26:49;;;;;;;2.15;1.95;;;4.40;99.90;;;;;;5074655;28;20255;-75
2021/03/06 14:29:17;;;;;;;2.15;1.58;;;4.30;99.90;;;;;;5075884;28;20181;-75
2021/03/06 14:31:44;;;;;;;2.28;1.50;;;4.30;99.90;;;;;;5075967;28;20199;-74
2021/03/06 14:34:14;;;;;;;2.05;1.60;;;4.40;99.90;;;;;;5076430;28;20208;-75
2021/03/06 14:36:43;;;;;;;1.88;1.77;;;4.40;99.90;;;;;;5074663;28;20277;-76
2021/03/06 14:39:11;;;;;;;1.33;1.10;;;4.30;99.90;;;;;;5075251;28;20196;-76
2021/03/06 14:41:40;;;;;;;5.32;1.83;;;4.30;99.90;;;;;;5075387;28;20180;-74
2021/03/06 14:44:08;;;;;;;4.72;1.67;;;4.30;99.90;;;;;;5075819;28;20208;-75
2021/03/06 14:46:36;;;;;;;3.50;2.05;;;4.50;99.90;;;;;;5074801;28;20194;-75
2021/03/06 14:49:06;;;;;;;1.83;1.50;;;4.60;99.90;;;;;;5074336;28;20237;-75
2021/03/06 14:51:34;;;;;;;4.60;2.15;;;4.60;99.90;;;;;;5075238;28;20188;-75
2021/03/06 14:54:03;;;;;;;3.20;2.90;;;4.70;99.90;;;;;;5076291;28;20172;-75
2021/03/06 14:56:31;;;;;;;3.67;2.10;;;4.70;99.90;;;;;;5076850;28;20173;-74
2021/03/06 14:58:58;;;;;;;5.13;2.55;;;4.70;99.90;;;;;;5073961;28;20242;-75
2021/03/06 15:01:26;;;;;;;3.15;2.67;;;4.60;99.90;;;;;;5075320;28;20173;-75
2021/03/06 15:03:54;;;;;;;4.72;2.63;;;4.70;99.90;;;;;;5076181;28;20266;-75
2021/03/06 15:06:25;;;;;;;3.42;2.40;;;4.60;99.90;;;;;;5075252;28;20184;-75
2021/03/06 15:08:53;;;;;;;4.65;2.97;;;4.70;99.90;;;;;;5075934;28;20555;-76
2021/03/06 15:11:22;;;;;;;7.47;3.67;;;4.70;99.90;;;;;;5074856;28;20172;-75
2021/03/06 15:13:58;;;;;;;3.92;2.63;;;4.70;99.90;;;;;;5075260;28;20177;-76
2021/03/06 15:16:28;;;;;;;3.20;2.85;;;4.60;99.90;;;;;;5074972;28;20194;-74
2021/03/06 15:18:55;;;;;;;4.50;2.83;;;4.60;99.90;;;;;;5072587;28;20223;-75
2021/03/06 15:21:23;;;;;;;15.80;2.70;;;4.50;99.90;;;;;;5077961;28;20230;-77
2021/03/06 15:23:52;;;;;;;4.60;3.40;;;4.40;99.90;;;;;;5088424;28;20242;-76
2021/03/06 15:26:20;;;;;;;6.15;3.10;;;4.40;99.90;;;;;;5078687;28;20184;-76
2021/03/06 15:28:48;;;;;;;3.28;2.45;;;4.40;99.90;;;;;;5078317;28;20177;-75
2021/03/06 15:31:15;;;;;;;8.25;2.90;;;4.30;99.90;;;;;;5076333;28;20192;-76
2021/03/06 15:33:43;;;;;;;4.93;3.10;;;4.30;99.90;;;;;;5077525;28;20642;-75
2021/03/06 15:36:13;;;;;;;2.47;2.30;;;4.30;99.90;;;;;;5077460;28;20237;-75
2021/03/06 15:38:40;;;;;;;5.22;2.38;;;4.30;99.90;;;;;;5077737;28;20239;-75
2021/03/06 15:41:08;;;;;;;4.05;2.60;;;4.30;99.90;;;;;;5077624;28;20607;-75
2021/03/06 15:43:46;;;;;;;7.32;4.20;;;4.30;99.90;;;;;;5075564;28;20257;-74
2021/03/06 15:46:13;;;;;;;3.85;2.85;;;4.30;99.90;;;;;;5076526;28;20188;-74
2021/03/06 15:48:44;;;;;;;4.80;2.90;;;4.30;99.90;;;;;;5077925;28;20231;-76
2021/03/06 15:51:14;;;;;;;6.63;2.63;;;4.40;99.90;;;;;;5077107;28;20275;-75
2021/03/06 15:53:44;;;;;;;2.40;2.20;;;4.50;99.90;;;;;;5075966;28;20654;-75
2021/03/06 15:56:12;;;;;;;4.10;2.30;;;4.40;99.90;;;;;;5076233;28;20627;-75
2021/03/06 15:58:39;;;;;;;5.80;4.07;;;4.50;99.90;;;;;;5075870;28;20210;-74
2021/03/06 16:01:09;;;;;;;3.95;3.15;;;4.50;99.90;;;;;;5076612;28;20544;-75
2021/03/06 16:03:36;;;;;;;4.90;3.95;;;4.40;99.90;;;;;;5076486;28;20238;-74
2021/03/06 16:06:04;;;;;;;10.00;4.75;;;4.30;99.90;;;;;;5076225;28;20628;-75
2021/03/06 16:08:38;;;;;;;4.00;2.13;;;4.30;99.90;;;;;;5075950;28;20291;-74
2021/03/06 16:11:05;;;;;;;4.75;3.70;;;4.20;99.90;;;;;;5076462;28;20175;-75
2021/03/06 16:13:33;;;;;;;2.40;2.03;;;4.20;99.90;;;;;;5074993;28;20246;-74
2021/03/06 16:16:00;;;;;;;5.75;3.75;;;4.20;99.90;;;;;;5076371;28;20705;-76
2021/03/06 16:18:29;;;;;;;4.55;3.22;;;4.20;99.90;;;;;;5074725;28;20759;-75
2021/03/06 16:20:56;;;;;;;7.18;4.45;;;4.30;99.90;;;;;;5075758;28;20666;-75
2021/03/06 16:23:24;;;;;;;7.18;4.10;;;4.30;99.90;;;;;;5074540;28;20208;-74
2021/03/06 16:25:51;;;;;;;4.75;3.30;;;4.30;99.90;;;;;;5075813;28;20188;-76
2021/03/06 16:28:18;;;;;;;5.13;3.17;;;4.30;99.90;;;;;;5075650;28;20208;-76
2021/03/06 16:30:46;;;;;;;4.53;2.67;;;4.30;99.90;;;;;;5075657;28;20261;-76
2021/03/06 16:33:14;;;;;;;3.75;3.33;;;4.30;99.90;;;;;;5075630;28;20172;-75
2021/03/06 16:35:48;;;;;;;4.65;3.28;;;4.30;99.90;;;;;;5075610;28;20627;-75
2021/03/06 16:38:17;;;;;;;4.43;4.00;;;4.30;99.90;;;;;;5075379;28;20239;-75
2021/03/06 16:40:45;;;;;;;3.97;3.63;;;4.30;99.90;;;;;;5076147;28;20259;-75
2021/03/06 16:43:13;;;;;;;5.53;3.70;;;4.20;99.90;;;;;;5075521;28;20192;-75
2021/03/06 16:45:41;;;;;;;3.08;2.85;;;4.20;99.90;;;;;;5074292;28;20211;-75
2021/03/06 16:48:09;;;;;;;4.80;3.47;;;4.20;99.90;;;;;;5075344;28;20219;-76
2021/03/06 16:50:37;;;;;;;5.13;3.05;;;4.20;99.90;;;;;;5075106;28;20215;-74
2021/03/06 16:53:05;;;;;;;6.22;2.80;;;4.20;99.90;;;;;;5075233;28;20239;-75
2021/03/06 16:55:33;;;;;;;4.05;3.00;;;4.20;99.90;;;;;;5074393;28;20180;-75
2021/03/06 16:58:00;;;;;;;5.70;4.15;;;4.20;99.90;;;;;;5075637;28;20767;-75
2021/03/06 17:00:28;;;;;;;5.30;3.78;;;4.10;99.90;;;;;;5077464;28;20243;-75
2021/03/06 17:03:05;;;;;;;4.78;3.70;;;4.10;99.90;;;;;;5075338;28;20227;-74
2021/03/06 17:05:33;;;;;;;6.75;4.68;;;4.10;99.90;;;;;;5108631;28;20192;-75
2021/03/06 17:08:00;;;;;;;3.45;3.13;;;4.10;99.90;;;;;;5074710;28;20227;-75
2021/03/06 17:10:29;;;;;;;9.13;4.22;;;4.10;99.90;;;;;;5076477;28;20172;-74
2021/03/06 17:12:56;;;;;;;5.80;4.65;;;4.00;99.90;;;;;;5076823;28;20184;-76
2021/03/06 17:15:23;;;;;;;5.25;4.50;;;4.00;99.90;;;;;;5077623;28;20255;-75
2021/03/06 17:17:51;;;;;;;5.53;3.80;;;4.00;99.90;;;;;;5086461;28;20224;-74
2021/03/06 17:20:20;;;;;;;4.80;3.70;;;4.00;99.90;;;;;;5072188;28;20588;-75
2021/03/06 17:22:47;;;;;;;9.98;4.03;;;4.10;99.90;;;;;;5071445;28;20216;-74
2021/03/06 17:25:15;;;;;;;7.53;5.60;;;4.10;99.90;;;;;;5089849;28;20202;-74
2021/03/06 17:27:43;;;;;;;5.20;4.55;;;4.10;99.90;;;;;;5090469;28;20208;-75
2021/03/06 17:30:12;;;;;;;4.28;3.15;;;4.00;99.90;;;;;;5090218;28;20196;-76
2021/03/06 17:32:39;;;;;;;5.90;5.32;;;4.00;99.90;;;;;;5092263;28;20176;-75
2021/03/06 17:35:09;;;;;;;6.28;4.22;;;4.00;99.90;;;;;;5093529;28;20609;-75
2021/03/06 17:37:37;;;;;;;10.60;4.50;;;4.00;99.90;;;;;;5085591;28;20223;-75
2021/03/06 17:40:06;;;;;;;6.72;4.50;;;4.10;99.90;;;;;;5075087;28;20705;-74
2021/03/06 17:42:34;;;;;;;5.10;4.60;;;4.10;99.90;;;;;;5074711;28;20204;-75
2021/03/06 17:45:02;;;;;;;4.75;4.13;;;4.10;99.90;;;;;;5075582;28;20200;-74
2021/03/06 17:47:30;;;;;;;5.50;3.85;;;4.00;99.90;;;;;;5074580;28;20216;-74